sensor_id;sensor_type;location;lat;lon;timestamp;P1;durP1;ratioP1;P2;durP2;ratioP2
9072;SDS011;4572;41.642;25.370;2023-04-03T00:01:23;3.77;;;1.77;;
9072;SDS011;4572;41.642;25.370;2023-04-03T00:03:49;2.27;;;1.50;;
9072;SDS011;4572;41.642;25.370;2023-04-03T00:06:15;2.13;;;1.57;;
9072;SDS011;4572;41.642;25.370;2023-04-03T00:08:40;3.53;;;1.80;;
9072;SDS011;4572;41.642;25.370;2023-04-03T00:11:06;4.07;;;2.43;;
9072;SDS011;4572;41.642;25.370;2023-04-03T00:13:32;3.00;;;2.10;;
9072;SDS011;4572;41.642;25.370;2023-04-03T00:15:57;3.37;;;1.90;;
9072;SDS011;4572;41.642;25.370;2023-04-03T00:18:23;5.70;;;2.33;;
9072;SDS011;4572;41.642;25.370;2023-04-03T00:20:49;2.30;;;2.00;;
9072;SDS011;4572;41.642;25.370;2023-04-03T00:23:14;3.17;;;2.03;;
9072;SDS011;4572;41.642;25.370;2023-04-03T00:25:40;3.53;;;2.00;;
9072;SDS011;4572;41.642;25.370;2023-04-03T00:28:06;4.80;;;1.83;;
9072;SDS011;4572;41.642;25.370;2023-04-03T00:30:31;2.33;;;1.90;;
9072;SDS011;4572;41.642;25.370;2023-04-03T00:32:57;2.23;;;1.90;;
9072;SDS011;4572;41.642;25.370;2023-04-03T00:35:23;2.80;;;1.80;;
9072;SDS011;4572;41.642;25.370;2023-04-03T00:37:52;2.80;;;1.80;;
9072;SDS011;4572;41.642;25.370;2023-04-03T00:40:19;1.90;;;1.67;;
9072;SDS011;4572;41.642;25.370;2023-04-03T00:42:46;3.23;;;1.60;;
9072;SDS011;4572;41.642;25.370;2023-04-03T00:47:38;2.50;;;1.80;;
9072;SDS011;4572;41.642;25.370;2023-04-03T00:50:05;2.10;;;1.60;;
9072;SDS011;4572;41.642;25.370;2023-04-03T00:52:31;2.50;;;1.90;;
9072;SDS011;4572;41.642;25.370;2023-04-03T00:54:58;3.33;;;2.20;;
9072;SDS011;4572;41.642;25.370;2023-04-03T00:57:26;3.83;;;1.70;;
9072;SDS011;4572;41.642;25.370;2023-04-03T00:59:54;3.83;;;1.87;;
9072;SDS011;4572;41.642;25.370;2023-04-03T01:02:21;3.17;;;1.80;;
9072;SDS011;4572;41.642;25.370;2023-04-03T01:04:47;1.77;;;1.67;;
9072;SDS011;4572;41.642;25.370;2023-04-03T01:07:23;1.97;;;1.60;;
9072;SDS011;4572;41.642;25.370;2023-04-03T01:09:52;5.27;;;1.83;;
9072;SDS011;4572;41.642;25.370;2023-04-03T01:12:22;1.63;;;1.53;;
9072;SDS011;4572;41.642;25.370;2023-04-03T01:14:49;3.43;;;1.70;;
9072;SDS011;4572;41.642;25.370;2023-04-03T01:20:14;2.03;;;1.40;;
9072;SDS011;4572;41.642;25.370;2023-04-03T01:25:16;2.53;;;1.90;;
9072;SDS011;4572;41.642;25.370;2023-04-03T01:27:42;1.63;;;1.53;;
9072;SDS011;4572;41.642;25.370;2023-04-03T01:30:08;2.80;;;1.60;;
9072;SDS011;4572;41.642;25.370;2023-04-03T01:32:34;2.60;;;1.47;;
9072;SDS011;4572;41.642;25.370;2023-04-03T01:34:59;2.47;;;1.60;;
9072;SDS011;4572;41.642;25.370;2023-04-03T01:37:25;4.27;;;1.80;;
9072;SDS011;4572;41.642;25.370;2023-04-03T01:39:50;2.03;;;1.50;;
9072;SDS011;4572;41.642;25.370;2023-04-03T01:42:16;2.00;;;1.37;;
9072;SDS011;4572;41.642;25.370;2023-04-03T01:44:41;2.47;;;1.40;;
9072;SDS011;4572;41.642;25.370;2023-04-03T01:47:06;4.27;;;1.23;;
9072;SDS011;4572;41.642;25.370;2023-04-03T01:49:32;3.43;;;1.47;;
9072;SDS011;4572;41.642;25.370;2023-04-03T01:51:58;1.70;;;1.50;;
9072;SDS011;4572;41.642;25.370;2023-04-03T01:54:23;3.07;;;1.80;;
9072;SDS011;4572;41.642;25.370;2023-04-03T01:56:49;1.33;;;1.20;;
9072;SDS011;4572;41.642;25.370;2023-04-03T01:59:14;1.53;;;1.43;;
9072;SDS011;4572;41.642;25.370;2023-04-03T02:01:42;3.60;;;1.67;;
9072;SDS011;4572;41.642;25.370;2023-04-03T02:04:08;1.97;;;1.50;;
9072;SDS011;4572;41.642;25.370;2023-04-03T02:06:34;2.37;;;1.77;;
9072;SDS011;4572;41.642;25.370;2023-04-03T02:09:00;2.67;;;2.10;;
9072;SDS011;4572;41.642;25.370;2023-04-03T02:11:25;2.00;;;1.67;;
9072;SDS011;4572;41.642;25.370;2023-04-03T02:13:51;2.17;;;1.43;;
9072;SDS011;4572;41.642;25.370;2023-04-03T02:16:16;4.70;;;1.87;;
9072;SDS011;4572;41.642;25.370;2023-04-03T02:18:42;1.53;;;1.43;;
9072;SDS011;4572;41.642;25.370;2023-04-03T02:21:07;5.30;;;1.80;;
9072;SDS011;4572;41.642;25.370;2023-04-03T02:23:33;5.13;;;1.87;;
9072;SDS011;4572;41.642;25.370;2023-04-03T02:26:08;1.53;;;1.43;;
9072;SDS011;4572;41.642;25.370;2023-04-03T02:28:35;1.93;;;1.73;;
9072;SDS011;4572;41.642;25.370;2023-04-03T02:31:01;2.70;;;1.73;;
9072;SDS011;4572;41.642;25.370;2023-04-03T02:33:27;1.77;;;1.43;;
9072;SDS011;4572;41.642;25.370;2023-04-03T02:35:56;1.67;;;1.57;;
9072;SDS011;4572;41.642;25.370;2023-04-03T02:38:22;2.77;;;2.10;;
9072;SDS011;4572;41.642;25.370;2023-04-03T02:40:48;3.03;;;1.77;;
9072;SDS011;4572;41.642;25.370;2023-04-03T02:43:14;4.97;;;1.90;;
9072;SDS011;4572;41.642;25.370;2023-04-03T02:45:39;1.43;;;1.33;;
9072;SDS011;4572;41.642;25.370;2023-04-03T02:48:05;2.87;;;1.50;;
9072;SDS011;4572;41.642;25.370;2023-04-03T02:50:30;2.43;;;1.50;;
9072;SDS011;4572;41.642;25.370;2023-04-03T02:52:56;2.87;;;1.43;;
9072;SDS011;4572;41.642;25.370;2023-04-03T02:55:21;2.83;;;1.50;;
9072;SDS011;4572;41.642;25.370;2023-04-03T02:57:47;2.50;;;1.70;;
9072;SDS011;4572;41.642;25.370;2023-04-03T03:00:13;2.27;;;1.57;;
9072;SDS011;4572;41.642;25.370;2023-04-03T03:02:39;2.30;;;1.57;;
9072;SDS011;4572;41.642;25.370;2023-04-03T03:05:05;2.47;;;1.80;;
9072;SDS011;4572;41.642;25.370;2023-04-03T03:07:31;2.87;;;1.90;;
9072;SDS011;4572;41.642;25.370;2023-04-03T03:09:57;1.63;;;1.53;;
9072;SDS011;4572;41.642;25.370;2023-04-03T03:12:22;3.77;;;1.63;;
9072;SDS011;4572;41.642;25.370;2023-04-03T03:14:49;1.73;;;1.63;;
9072;SDS011;4572;41.642;25.370;2023-04-03T03:17:15;2.77;;;1.90;;
9072;SDS011;4572;41.642;25.370;2023-04-03T03:19:41;2.67;;;1.90;;
9072;SDS011;4572;41.642;25.370;2023-04-03T03:22:07;3.57;;;2.23;;
9072;SDS011;4572;41.642;25.370;2023-04-03T03:24:32;3.43;;;2.00;;
9072;SDS011;4572;41.642;25.370;2023-04-03T03:26:58;2.57;;;1.87;;
9072;SDS011;4572;41.642;25.370;2023-04-03T03:29:24;9.80;;;4.20;;
9072;SDS011;4572;41.642;25.370;2023-04-03T03:31:49;6.03;;;3.60;;
9072;SDS011;4572;41.642;25.370;2023-04-03T03:34:15;8.60;;;3.23;;
9072;SDS011;4572;41.642;25.370;2023-04-03T03:36:40;4.07;;;2.57;;
9072;SDS011;4572;41.642;25.370;2023-04-03T03:39:06;2.40;;;2.20;;
9072;SDS011;4572;41.642;25.370;2023-04-03T03:41:31;2.43;;;1.83;;
9072;SDS011;4572;41.642;25.370;2023-04-03T03:43:57;5.07;;;2.03;;
9072;SDS011;4572;41.642;25.370;2023-04-03T03:46:22;2.40;;;2.00;;
9072;SDS011;4572;41.642;25.370;2023-04-03T03:48:48;2.87;;;1.90;;
9072;SDS011;4572;41.642;25.370;2023-04-03T03:51:13;3.97;;;2.70;;
9072;SDS011;4572;41.642;25.370;2023-04-03T03:53:39;3.23;;;2.00;;
9072;SDS011;4572;41.642;25.370;2023-04-03T03:56:05;2.77;;;2.40;;
9072;SDS011;4572;41.642;25.370;2023-04-03T03:58:31;4.23;;;2.27;;
9072;SDS011;4572;41.642;25.370;2023-04-03T04:01:00;2.20;;;1.80;;
9072;SDS011;4572;41.642;25.370;2023-04-03T04:03:26;2.67;;;2.10;;
9072;SDS011;4572;41.642;25.370;2023-04-03T04:05:52;2.57;;;1.93;;
9072;SDS011;4572;41.642;25.370;2023-04-03T04:08:17;4.00;;;3.10;;
9072;SDS011;4572;41.642;25.370;2023-04-03T04:10:43;3.47;;;2.17;;
9072;SDS011;4572;41.642;25.370;2023-04-03T04:13:08;3.43;;;2.30;;
9072;SDS011;4572;41.642;25.370;2023-04-03T04:15:34;3.47;;;2.40;;
9072;SDS011;4572;41.642;25.370;2023-04-03T04:17:59;2.83;;;2.10;;
9072;SDS011;4572;41.642;25.370;2023-04-03T04:20:25;2.40;;;2.20;;
9072;SDS011;4572;41.642;25.370;2023-04-03T04:22:50;4.27;;;2.73;;
9072;SDS011;4572;41.642;25.370;2023-04-03T04:25:16;2.70;;;2.30;;
9072;SDS011;4572;41.642;25.370;2023-04-03T04:27:41;3.60;;;2.33;;
9072;SDS011;4572;41.642;25.370;2023-04-03T04:30:07;2.97;;;2.53;;
9072;SDS011;4572;41.642;25.370;2023-04-03T04:32:33;5.53;;;2.63;;
9072;SDS011;4572;41.642;25.370;2023-04-03T04:34:59;6.30;;;2.90;;
9072;SDS011;4572;41.642;25.370;2023-04-03T04:37:24;3.73;;;2.83;;
9072;SDS011;4572;41.642;25.370;2023-04-03T04:39:50;2.40;;;2.20;;
9072;SDS011;4572;41.642;25.370;2023-04-03T04:42:15;3.77;;;2.90;;
9072;SDS011;4572;41.642;25.370;2023-04-03T04:44:42;2.77;;;2.30;;
9072;SDS011;4572;41.642;25.370;2023-04-03T04:47:07;5.93;;;2.80;;
9072;SDS011;4572;41.642;25.370;2023-04-03T04:49:32;4.70;;;3.00;;
9072;SDS011;4572;41.642;25.370;2023-04-03T04:51:58;3.37;;;2.90;;
9072;SDS011;4572;41.642;25.370;2023-04-03T04:54:23;3.83;;;2.50;;
9072;SDS011;4572;41.642;25.370;2023-04-03T04:56:49;3.40;;;2.70;;
9072;SDS011;4572;41.642;25.370;2023-04-03T04:59:14;8.23;;;5.23;;
9072;SDS011;4572;41.642;25.370;2023-04-03T05:01:40;7.37;;;5.23;;
9072;SDS011;4572;41.642;25.370;2023-04-03T05:04:06;6.80;;;4.27;;
9072;SDS011;4572;41.642;25.370;2023-04-03T05:06:31;5.77;;;3.67;;
9072;SDS011;4572;41.642;25.370;2023-04-03T05:08:58;6.37;;;4.10;;
9072;SDS011;4572;41.642;25.370;2023-04-03T05:11:24;5.13;;;3.13;;
9072;SDS011;4572;41.642;25.370;2023-04-03T05:13:50;3.30;;;2.80;;
9072;SDS011;4572;41.642;25.370;2023-04-03T05:16:16;5.87;;;3.83;;
9072;SDS011;4572;41.642;25.370;2023-04-03T05:18:41;5.13;;;3.73;;
9072;SDS011;4572;41.642;25.370;2023-04-03T05:21:07;4.00;;;2.67;;
9072;SDS011;4572;41.642;25.370;2023-04-03T05:23:32;6.87;;;3.53;;
9072;SDS011;4572;41.642;25.370;2023-04-03T05:25:58;4.57;;;3.83;;
9072;SDS011;4572;41.642;25.370;2023-04-03T05:28:23;4.70;;;3.10;;
9072;SDS011;4572;41.642;25.370;2023-04-03T05:30:53;4.97;;;3.23;;
9072;SDS011;4572;41.642;25.370;2023-04-03T05:33:20;5.53;;;3.63;;
9072;SDS011;4572;41.642;25.370;2023-04-03T05:35:46;7.50;;;3.70;;
9072;SDS011;4572;41.642;25.370;2023-04-03T05:38:11;5.63;;;3.70;;
9072;SDS011;4572;41.642;25.370;2023-04-03T05:40:37;3.77;;;2.23;;
9072;SDS011;4572;41.642;25.370;2023-04-03T05:43:02;6.70;;;3.50;;
9072;SDS011;4572;41.642;25.370;2023-04-03T05:45:28;5.60;;;3.87;;
9072;SDS011;4572;41.642;25.370;2023-04-03T05:47:55;4.73;;;3.60;;
9072;SDS011;4572;41.642;25.370;2023-04-03T05:50:20;5.73;;;3.37;;
9072;SDS011;4572;41.642;25.370;2023-04-03T05:52:46;6.80;;;3.97;;
9072;SDS011;4572;41.642;25.370;2023-04-03T05:55:13;5.60;;;3.30;;
9072;SDS011;4572;41.642;25.370;2023-04-03T05:57:39;7.70;;;3.43;;
9072;SDS011;4572;41.642;25.370;2023-04-03T06:00:05;5.53;;;4.23;;
9072;SDS011;4572;41.642;25.370;2023-04-03T06:02:34;6.67;;;4.33;;
9072;SDS011;4572;41.642;25.370;2023-04-03T06:05:01;11.27;;;3.47;;
9072;SDS011;4572;41.642;25.370;2023-04-03T06:07:27;9.57;;;4.67;;
9072;SDS011;4572;41.642;25.370;2023-04-03T06:09:54;5.17;;;3.50;;
9072;SDS011;4572;41.642;25.370;2023-04-03T06:12:21;5.27;;;3.40;;
9072;SDS011;4572;41.642;25.370;2023-04-03T06:14:48;9.80;;;4.50;;
9072;SDS011;4572;41.642;25.370;2023-04-03T06:17:14;4.37;;;3.57;;
9072;SDS011;4572;41.642;25.370;2023-04-03T06:19:40;4.30;;;3.47;;
9072;SDS011;4572;41.642;25.370;2023-04-03T06:22:06;5.40;;;3.10;;
9072;SDS011;4572;41.642;25.370;2023-04-03T06:24:32;2.80;;;2.27;;
9072;SDS011;4572;41.642;25.370;2023-04-03T06:26:57;4.17;;;3.30;;
9072;SDS011;4572;41.642;25.370;2023-04-03T06:29:23;7.00;;;4.47;;
9072;SDS011;4572;41.642;25.370;2023-04-03T06:31:49;6.40;;;3.57;;
9072;SDS011;4572;41.642;25.370;2023-04-03T06:34:15;9.63;;;5.23;;
9072;SDS011;4572;41.642;25.370;2023-04-03T06:36:41;7.50;;;5.10;;
9072;SDS011;4572;41.642;25.370;2023-04-03T06:39:08;9.37;;;5.63;;
9072;SDS011;4572;41.642;25.370;2023-04-03T06:41:35;9.27;;;6.40;;
9072;SDS011;4572;41.642;25.370;2023-04-03T06:44:01;9.30;;;5.20;;
9072;SDS011;4572;41.642;25.370;2023-04-03T06:46:28;5.67;;;4.20;;
9072;SDS011;4572;41.642;25.370;2023-04-03T06:48:53;8.10;;;4.37;;
9072;SDS011;4572;41.642;25.370;2023-04-03T06:51:23;5.00;;;3.90;;
9072;SDS011;4572;41.642;25.370;2023-04-03T06:53:51;6.83;;;4.70;;
9072;SDS011;4572;41.642;25.370;2023-04-03T06:56:18;7.37;;;4.70;;
9072;SDS011;4572;41.642;25.370;2023-04-03T06:58:43;9.40;;;5.47;;
9072;SDS011;4572;41.642;25.370;2023-04-03T07:01:10;6.33;;;5.47;;
9072;SDS011;4572;41.642;25.370;2023-04-03T07:03:37;7.73;;;4.57;;
9072;SDS011;4572;41.642;25.370;2023-04-03T07:06:03;12.43;;;6.13;;
9072;SDS011;4572;41.642;25.370;2023-04-03T07:08:31;8.93;;;5.90;;
9072;SDS011;4572;41.642;25.370;2023-04-03T07:10:56;8.13;;;4.97;;
9072;SDS011;4572;41.642;25.370;2023-04-03T07:13:22;10.60;;;6.40;;
9072;SDS011;4572;41.642;25.370;2023-04-03T07:15:48;12.97;;;7.30;;
9072;SDS011;4572;41.642;25.370;2023-04-03T07:18:14;12.10;;;6.57;;
9072;SDS011;4572;41.642;25.370;2023-04-03T07:20:39;9.83;;;5.97;;
9072;SDS011;4572;41.642;25.370;2023-04-03T07:23:05;9.30;;;5.53;;
9072;SDS011;4572;41.642;25.370;2023-04-03T07:25:31;11.43;;;5.80;;
9072;SDS011;4572;41.642;25.370;2023-04-03T07:27:56;7.33;;;5.07;;
9072;SDS011;4572;41.642;25.370;2023-04-03T07:30:22;7.23;;;5.63;;
9072;SDS011;4572;41.642;25.370;2023-04-03T07:32:48;11.03;;;5.50;;
9072;SDS011;4572;41.642;25.370;2023-04-03T07:35:13;11.70;;;7.33;;
9072;SDS011;4572;41.642;25.370;2023-04-03T07:37:39;6.30;;;5.23;;
9072;SDS011;4572;41.642;25.370;2023-04-03T07:40:06;13.13;;;5.77;;
9072;SDS011;4572;41.642;25.370;2023-04-03T07:42:32;9.67;;;5.77;;
9072;SDS011;4572;41.642;25.370;2023-04-03T07:44:57;7.77;;;5.60;;
9072;SDS011;4572;41.642;25.370;2023-04-03T07:47:23;8.43;;;6.37;;
9072;SDS011;4572;41.642;25.370;2023-04-03T07:49:48;14.27;;;6.63;;
9072;SDS011;4572;41.642;25.370;2023-04-03T07:52:14;9.77;;;6.27;;
9072;SDS011;4572;41.642;25.370;2023-04-03T07:54:42;7.90;;;5.93;;
9072;SDS011;4572;41.642;25.370;2023-04-03T07:57:07;7.57;;;5.67;;
9072;SDS011;4572;41.642;25.370;2023-04-03T07:59:33;9.30;;;5.93;;
9072;SDS011;4572;41.642;25.370;2023-04-03T08:01:58;10.77;;;6.83;;
9072;SDS011;4572;41.642;25.370;2023-04-03T08:04:24;9.33;;;6.60;;
9072;SDS011;4572;41.642;25.370;2023-04-03T08:06:51;13.17;;;9.77;;
9072;SDS011;4572;41.642;25.370;2023-04-03T08:09:17;10.30;;;6.10;;
9072;SDS011;4572;41.642;25.370;2023-04-03T08:11:44;12.07;;;6.87;;
9072;SDS011;4572;41.642;25.370;2023-04-03T08:14:09;8.47;;;6.70;;
9072;SDS011;4572;41.642;25.370;2023-04-03T08:16:40;9.20;;;6.93;;
9072;SDS011;4572;41.642;25.370;2023-04-03T08:19:06;9.77;;;6.27;;
9072;SDS011;4572;41.642;25.370;2023-04-03T08:21:32;14.50;;;7.03;;
9072;SDS011;4572;41.642;25.370;2023-04-03T08:23:58;9.50;;;6.90;;
9072;SDS011;4572;41.642;25.370;2023-04-03T08:26:23;15.67;;;9.47;;
9072;SDS011;4572;41.642;25.370;2023-04-03T08:28:51;11.83;;;8.83;;
9072;SDS011;4572;41.642;25.370;2023-04-03T08:31:17;11.93;;;7.93;;
9072;SDS011;4572;41.642;25.370;2023-04-03T08:33:44;11.03;;;8.27;;
9072;SDS011;4572;41.642;25.370;2023-04-03T08:36:17;25.40;;;15.07;;
9072;SDS011;4572;41.642;25.370;2023-04-03T08:38:47;12.23;;;8.90;;
9072;SDS011;4572;41.642;25.370;2023-04-03T08:41:15;11.33;;;8.47;;
9072;SDS011;4572;41.642;25.370;2023-04-03T08:43:54;9.77;;;8.33;;
9072;SDS011;4572;41.642;25.370;2023-04-03T08:46:22;13.57;;;9.10;;
9072;SDS011;4572;41.642;25.370;2023-04-03T08:48:52;12.67;;;8.10;;
9072;SDS011;4572;41.642;25.370;2023-04-03T08:51:19;11.97;;;8.90;;
9072;SDS011;4572;41.642;25.370;2023-04-03T08:53:56;11.87;;;9.03;;
9072;SDS011;4572;41.642;25.370;2023-04-03T08:56:25;13.27;;;8.53;;
9072;SDS011;4572;41.642;25.370;2023-04-03T08:58:58;12.27;;;8.93;;
9072;SDS011;4572;41.642;25.370;2023-04-03T09:01:36;12.17;;;8.80;;
9072;SDS011;4572;41.642;25.370;2023-04-03T09:04:05;12.60;;;8.83;;
9072;SDS011;4572;41.642;25.370;2023-04-03T09:06:36;11.40;;;7.90;;
9072;SDS011;4572;41.642;25.370;2023-04-03T09:14:38;13.37;;;9.23;;
9072;SDS011;4572;41.642;25.370;2023-04-03T09:20:02;11.33;;;8.63;;
9072;SDS011;4572;41.642;25.370;2023-04-03T09:22:33;11.00;;;8.73;;
9072;SDS011;4572;41.642;25.370;2023-04-03T09:25:16;13.97;;;8.80;;
9072;SDS011;4572;41.642;25.370;2023-04-03T09:30:42;13.30;;;8.60;;
9072;SDS011;4572;41.642;25.370;2023-04-03T09:33:07;13.73;;;9.17;;
9072;SDS011;4572;41.642;25.370;2023-04-03T09:35:35;15.33;;;9.43;;
9072;SDS011;4572;41.642;25.370;2023-04-03T09:38:15;13.03;;;9.23;;
9072;SDS011;4572;41.642;25.370;2023-04-03T09:40:50;18.43;;;12.87;;
9072;SDS011;4572;41.642;25.370;2023-04-03T09:43:28;15.97;;;11.70;;
9072;SDS011;4572;41.642;25.370;2023-04-03T09:45:56;22.33;;;13.13;;
9072;SDS011;4572;41.642;25.370;2023-04-03T09:48:52;20.57;;;13.17;;
9072;SDS011;4572;41.642;25.370;2023-04-03T09:51:23;18.70;;;13.43;;
9072;SDS011;4572;41.642;25.370;2023-04-03T09:53:51;20.93;;;13.43;;
9072;SDS011;4572;41.642;25.370;2023-04-03T09:58:46;16.90;;;12.57;;
9072;SDS011;4572;41.642;25.370;2023-04-03T10:06:40;18.63;;;10.70;;
9072;SDS011;4572;41.642;25.370;2023-04-03T10:14:26;15.80;;;10.70;;
9072;SDS011;4572;41.642;25.370;2023-04-03T10:16:57;19.10;;;10.80;;
9072;SDS011;4572;41.642;25.370;2023-04-03T10:19:31;16.07;;;9.10;;
9072;SDS011;4572;41.642;25.370;2023-04-03T10:22:15;10.93;;;7.67;;
9072;SDS011;4572;41.642;25.370;2023-04-03T10:40:46;13.20;;;9.20;;
9072;SDS011;4572;41.642;25.370;2023-04-03T10:43:21;14.40;;;10.07;;
9072;SDS011;4572;41.642;25.370;2023-04-03T10:46:00;16.00;;;10.00;;
9072;SDS011;4572;41.642;25.370;2023-04-03T10:54:26;12.27;;;8.00;;
9072;SDS011;4572;41.642;25.370;2023-04-03T10:56:57;11.67;;;8.40;;
9072;SDS011;4572;41.642;25.370;2023-04-03T10:59:35;12.40;;;8.17;;
9072;SDS011;4572;41.642;25.370;2023-04-03T11:02:30;8.93;;;6.47;;
9072;SDS011;4572;41.642;25.370;2023-04-03T11:05:02;12.10;;;7.40;;
9072;SDS011;4572;41.642;25.370;2023-04-03T11:07:40;8.00;;;5.87;;
9072;SDS011;4572;41.642;25.370;2023-04-03T11:10:13;7.50;;;4.73;;
9072;SDS011;4572;41.642;25.370;2023-04-03T11:12:43;7.63;;;4.47;;
9072;SDS011;4572;41.642;25.370;2023-04-03T11:15:15;4.97;;;4.27;;
9072;SDS011;4572;41.642;25.370;2023-04-03T11:17:46;6.10;;;4.70;;
9072;SDS011;4572;41.642;25.370;2023-04-03T11:20:29;7.90;;;5.00;;
9072;SDS011;4572;41.642;25.370;2023-04-03T11:23:02;10.57;;;4.60;;
9072;SDS011;4572;41.642;25.370;2023-04-03T11:25:30;5.63;;;4.40;;
9072;SDS011;4572;41.642;25.370;2023-04-03T11:27:58;7.80;;;4.47;;
9072;SDS011;4572;41.642;25.370;2023-04-03T11:35:58;6.27;;;4.63;;
9072;SDS011;4572;41.642;25.370;2023-04-03T11:38:36;5.33;;;4.40;;
9072;SDS011;4572;41.642;25.370;2023-04-03T11:41:06;8.90;;;5.10;;
9072;SDS011;4572;41.642;25.370;2023-04-03T11:43:33;6.77;;;4.43;;
9072;SDS011;4572;41.642;25.370;2023-04-03T11:46:06;8.87;;;4.93;;
9072;SDS011;4572;41.642;25.370;2023-04-03T11:53:39;5.97;;;4.60;;
9072;SDS011;4572;41.642;25.370;2023-04-03T12:04:13;7.87;;;4.50;;
9072;SDS011;4572;41.642;25.370;2023-04-03T12:11:52;5.20;;;4.27;;
9072;SDS011;4572;41.642;25.370;2023-04-03T12:14:19;9.23;;;5.40;;
9072;SDS011;4572;41.642;25.370;2023-04-03T12:16:47;7.30;;;4.70;;
9072;SDS011;4572;41.642;25.370;2023-04-03T12:24:32;8.73;;;6.53;;
9072;SDS011;4572;41.642;25.370;2023-04-03T12:40:06;5.53;;;4.13;;
9072;SDS011;4572;41.642;25.370;2023-04-03T12:45:22;6.57;;;4.60;;
9072;SDS011;4572;41.642;25.370;2023-04-03T12:47:49;5.70;;;3.67;;
9072;SDS011;4572;41.642;25.370;2023-04-03T12:50:24;4.73;;;4.00;;
9072;SDS011;4572;41.642;25.370;2023-04-03T12:53:11;7.00;;;3.90;;
9072;SDS011;4572;41.642;25.370;2023-04-03T12:55:40;5.50;;;3.80;;
9072;SDS011;4572;41.642;25.370;2023-04-03T13:00:58;8.30;;;5.23;;
9072;SDS011;4572;41.642;25.370;2023-04-03T13:03:35;7.17;;;4.63;;
9072;SDS011;4572;41.642;25.370;2023-04-03T13:06:03;6.60;;;4.50;;
9072;SDS011;4572;41.642;25.370;2023-04-03T13:08:29;6.57;;;4.37;;
9072;SDS011;4572;41.642;25.370;2023-04-03T13:11:01;5.80;;;4.47;;
9072;SDS011;4572;41.642;25.370;2023-04-03T13:13:28;3.20;;;2.90;;
9072;SDS011;4572;41.642;25.370;2023-04-03T13:15:54;8.30;;;4.40;;
9072;SDS011;4572;41.642;25.370;2023-04-03T13:18:30;4.33;;;3.70;;
9072;SDS011;4572;41.642;25.370;2023-04-03T13:23:58;8.07;;;5.17;;
9072;SDS011;4572;41.642;25.370;2023-04-03T13:26:26;6.40;;;5.30;;
9072;SDS011;4572;41.642;25.370;2023-04-03T13:28:55;7.60;;;4.83;;
9072;SDS011;4572;41.642;25.370;2023-04-03T13:31:25;7.13;;;4.63;;
9072;SDS011;4572;41.642;25.370;2023-04-03T13:36:46;8.67;;;5.27;;
9072;SDS011;4572;41.642;25.370;2023-04-03T13:39:23;8.30;;;5.10;;
9072;SDS011;4572;41.642;25.370;2023-04-03T13:41:54;9.10;;;5.43;;
9072;SDS011;4572;41.642;25.370;2023-04-03T13:46:54;5.93;;;4.50;;
9072;SDS011;4572;41.642;25.370;2023-04-03T13:49:27;4.13;;;3.00;;
9072;SDS011;4572;41.642;25.370;2023-04-03T13:51:59;6.50;;;3.83;;
9072;SDS011;4572;41.642;25.370;2023-04-03T13:56:58;4.03;;;3.40;;
9072;SDS011;4572;41.642;25.370;2023-04-03T13:59:33;4.37;;;3.10;;
9072;SDS011;4572;41.642;25.370;2023-04-03T14:04:29;6.40;;;3.40;;
9072;SDS011;4572;41.642;25.370;2023-04-03T14:06:56;4.27;;;2.87;;
9072;SDS011;4572;41.642;25.370;2023-04-03T14:09:22;3.97;;;2.80;;
9072;SDS011;4572;41.642;25.370;2023-04-03T14:11:49;5.50;;;2.67;;
9072;SDS011;4572;41.642;25.370;2023-04-03T14:14:19;5.60;;;4.20;;
9072;SDS011;4572;41.642;25.370;2023-04-03T14:16:56;4.83;;;3.20;;
9072;SDS011;4572;41.642;25.370;2023-04-03T14:19:32;5.17;;;3.10;;
9072;SDS011;4572;41.642;25.370;2023-04-03T14:21:59;3.33;;;2.77;;
9072;SDS011;4572;41.642;25.370;2023-04-03T14:24:26;5.53;;;3.50;;
9072;SDS011;4572;41.642;25.370;2023-04-03T14:26:53;3.37;;;2.77;;
9072;SDS011;4572;41.642;25.370;2023-04-03T14:29:20;4.73;;;3.23;;
9072;SDS011;4572;41.642;25.370;2023-04-03T14:31:47;6.23;;;3.30;;
9072;SDS011;4572;41.642;25.370;2023-04-03T14:34:14;6.53;;;4.07;;
9072;SDS011;4572;41.642;25.370;2023-04-03T14:36:41;4.23;;;3.30;;
9072;SDS011;4572;41.642;25.370;2023-04-03T14:39:10;6.27;;;4.37;;
9072;SDS011;4572;41.642;25.370;2023-04-03T14:41:42;4.57;;;3.27;;
9072;SDS011;4572;41.642;25.370;2023-04-03T14:44:08;7.57;;;4.40;;
9072;SDS011;4572;41.642;25.370;2023-04-03T14:46:38;6.33;;;3.70;;
9072;SDS011;4572;41.642;25.370;2023-04-03T14:49:14;6.70;;;4.23;;
9072;SDS011;4572;41.642;25.370;2023-04-03T14:51:41;5.60;;;4.20;;
9072;SDS011;4572;41.642;25.370;2023-04-03T14:54:14;5.60;;;4.30;;
9072;SDS011;4572;41.642;25.370;2023-04-03T14:56:42;5.77;;;4.47;;
9072;SDS011;4572;41.642;25.370;2023-04-03T14:59:09;6.73;;;4.37;;
9072;SDS011;4572;41.642;25.370;2023-04-03T15:01:37;5.93;;;3.60;;
9072;SDS011;4572;41.642;25.370;2023-04-03T15:04:05;8.30;;;4.87;;
9072;SDS011;4572;41.642;25.370;2023-04-03T15:06:39;10.60;;;4.90;;
9072;SDS011;4572;41.642;25.370;2023-04-03T15:09:04;10.00;;;4.60;;
9072;SDS011;4572;41.642;25.370;2023-04-03T15:11:30;7.80;;;5.30;;
9072;SDS011;4572;41.642;25.370;2023-04-03T15:13:55;11.20;;;6.00;;
9072;SDS011;4572;41.642;25.370;2023-04-03T15:16:21;6.90;;;5.43;;
9072;SDS011;4572;41.642;25.370;2023-04-03T15:18:47;9.50;;;5.37;;
9072;SDS011;4572;41.642;25.370;2023-04-03T15:21:13;9.93;;;5.63;;
9072;SDS011;4572;41.642;25.370;2023-04-03T15:23:39;10.77;;;5.63;;
9072;SDS011;4572;41.642;25.370;2023-04-03T15:26:04;8.53;;;5.40;;
9072;SDS011;4572;41.642;25.370;2023-04-03T15:28:35;9.87;;;5.77;;
9072;SDS011;4572;41.642;25.370;2023-04-03T15:31:02;6.70;;;4.97;;
9072;SDS011;4572;41.642;25.370;2023-04-03T15:33:29;7.17;;;5.27;;
9072;SDS011;4572;41.642;25.370;2023-04-03T15:35:55;9.63;;;6.07;;
9072;SDS011;4572;41.642;25.370;2023-04-03T15:38:20;10.67;;;5.87;;
9072;SDS011;4572;41.642;25.370;2023-04-03T15:40:46;13.37;;;6.93;;
9072;SDS011;4572;41.642;25.370;2023-04-03T15:43:15;34.20;;;15.07;;
9072;SDS011;4572;41.642;25.370;2023-04-03T15:45:40;12.07;;;6.47;;
9072;SDS011;4572;41.642;25.370;2023-04-03T15:48:06;11.27;;;6.60;;
9072;SDS011;4572;41.642;25.370;2023-04-03T15:50:33;10.67;;;6.57;;
9072;SDS011;4572;41.642;25.370;2023-04-03T15:52:58;9.63;;;6.47;;
9072;SDS011;4572;41.642;25.370;2023-04-03T15:55:30;11.43;;;6.93;;
9072;SDS011;4572;41.642;25.370;2023-04-03T15:57:57;10.03;;;6.23;;
9072;SDS011;4572;41.642;25.370;2023-04-03T16:00:23;10.60;;;7.10;;
9072;SDS011;4572;41.642;25.370;2023-04-03T16:02:52;9.97;;;5.43;;
9072;SDS011;4572;41.642;25.370;2023-04-03T16:05:19;12.57;;;6.73;;
9072;SDS011;4572;41.642;25.370;2023-04-03T16:07:45;11.03;;;7.20;;
9072;SDS011;4572;41.642;25.370;2023-04-03T16:10:11;11.03;;;6.30;;
9072;SDS011;4572;41.642;25.370;2023-04-03T16:12:38;7.83;;;4.77;;
9072;SDS011;4572;41.642;25.370;2023-04-03T16:15:04;11.53;;;6.47;;
9072;SDS011;4572;41.642;25.370;2023-04-03T16:17:31;11.10;;;6.50;;
9072;SDS011;4572;41.642;25.370;2023-04-03T16:19:57;9.50;;;6.07;;
9072;SDS011;4572;41.642;25.370;2023-04-03T16:22:23;11.40;;;7.20;;
9072;SDS011;4572;41.642;25.370;2023-04-03T16:24:50;10.83;;;7.00;;
9072;SDS011;4572;41.642;25.370;2023-04-03T16:27:15;19.33;;;11.53;;
9072;SDS011;4572;41.642;25.370;2023-04-03T16:29:41;18.10;;;10.87;;
9072;SDS011;4572;41.642;25.370;2023-04-03T16:32:07;17.17;;;10.70;;
9072;SDS011;4572;41.642;25.370;2023-04-03T16:34:33;16.47;;;9.33;;
9072;SDS011;4572;41.642;25.370;2023-04-03T16:36:58;7.40;;;5.67;;
9072;SDS011;4572;41.642;25.370;2023-04-03T16:39:24;7.30;;;6.10;;
9072;SDS011;4572;41.642;25.370;2023-04-03T16:41:50;13.27;;;7.07;;
9072;SDS011;4572;41.642;25.370;2023-04-03T16:44:16;6.73;;;5.47;;
9072;SDS011;4572;41.642;25.370;2023-04-03T16:46:41;7.97;;;5.57;;
9072;SDS011;4572;41.642;25.370;2023-04-03T16:49:07;6.87;;;4.30;;
9072;SDS011;4572;41.642;25.370;2023-04-03T16:51:32;9.17;;;5.50;;
9072;SDS011;4572;41.642;25.370;2023-04-03T16:53:58;10.00;;;5.43;;
9072;SDS011;4572;41.642;25.370;2023-04-03T16:56:23;6.87;;;3.63;;